Absecon Highlands, NJ

5:51 PM EDT on August 29, 2014 (GMT -0400)
Galloway Twp Police Dept | Change Station
CLOSE
Current Station
Personal Weather Station
Location: Galloway, NJ
Elevation: 30 ft
Nearby Weather Stations

Elev 30 ft 39.46 °N, 74.50 °W | Updated 2 seconds ago

Partly Cloudy
Partly Cloudy
71.7 °F
Feels Like 74 °F
N
9.0
Wind Variable Wind from East
Gusts 9.0 mph

Today
High -- | Low -- °F
--% Chance of Precip.
Yesterday
High -- | Low -- °F
Precip. -- in
6:23 AM 7:33 PM
Waxing Crescent, 17% visible
Pressure 30.18 in
Visibility 10.0 miles
Clouds Few 3100 ft
Heat Index 74 °F
Dew Point 62 °F
Humidity 71%
Rainfall 0.00 in
Snow Depth Not available.
UV 3 out of 12
Pollen 9.60 out of 12
Ozone Good
PM2.5 Good
Flu Activity Not available.
METAR KACY 292054Z 10007KT 10SM FEW031 23/16 A3018 RMK AO2 SLP220 T02280161 55001

More Conditions Fewer Conditions

Pressure 30.18 in
Visibility 10.0 miles
Clouds Few 3100 ft
Heat Index 74 °F
Dew Point 62 °F
Humidity 71%
Rainfall 0.00 in
Snow Depth Not available.
UV 3 out of 12
Pollen 9.60 out of 12
Ozone Good
PM2.5 Good
Flu Activity Not available.
METAR KACY 292054Z 10007KT 10SM FEW031 23/16 A3018 RMK AO2 SLP220 T02280161 55001

More Conditions Fewer Conditions

10-Day Weather Forecast

Almanac

Astronomy

Aug. 29, 2014 Rise Set
Actual Time 6:23 AM EDT 7:33 PM EDT
Civil Twilight 5:55 AM EDT 8:01 PM EDT
Nautical Twilight 5:22 AM EDT 8:34 PM EDT
Astronomical Twilight 4:48 AM EDT 9:08 PM EDT
Moon 10:09 AM EDT 9:31 PM EDT
Length of Visible Light 14h 05m
Length of Day
13h 10m
Tomorrow will be 2m 27s shorter.
Waxing Crescent, 17% of the Moon is Illuminated
Today
Waxing Crescent
Sep 2
First Quarter
Sep 8
Full
Sep 15
Last Quarter
Sep 24
New

Today's Extremes

State Highs State Lows

Community

WunderPhotos

Upload Photos

1,748,349 photos uploaded!

Nearby

Air Quality

  Air Quality AQ Index Pollutant
Yesterday Good
PM2.5
Yesterday Good
OZONE
Current Good
OZONE
Current Good
PM2.5
Friday Moderate
OZONE
Friday Good
PM2.5
Saturday Moderate
OZONE
Saturday Good
PM2.5
Sunday Moderate
PM2.5
Sunday Good
OZONE
Monday Moderate
PM2.5
Monday Good
OZONE

Snow Depth

Station Depth Elevation
No new snow has been reported.

Earthquake Activity

City Distance Mag. Time & Date
No recent earthquake activity has been reported nearby.
Minimum magnitude displayed is 2.5.

Coastal Water Temperatures

Place Temperature
Atlantic City, NJ 75.9 °F

Nearby Weather Stations